• Join FlightAware (Why Join?)
  • Login
  • US Flag 
08:02PM EDT


 

Airport Tracker/Info


-or-


 

Live Flight TrackerFlight Track Log ✈ GJS3707 ✈ 05-Jun-2013 ✈ KORD - KBOI

Flight Track Log - Related Links

Times and Time Zones

All times are in EDT time to prevent confusion due to time zone crossing. See the GJS3707 flight status page for this flight to view local times or setup timezone preferences in your user account.

Time Position Orientation Groundspeed Altitude Reporting Facility
EDT Latitude Longitude Course Direction KTS MPH feet Rate Location/Type
11:16AM 41.9333 -87.9167 270° West 176 203 1,900  Level Chicago TRACON
11:17AM 41.9000 -87.9833 236° Southwest 212 244 4,100 1,680 Climbing Chicago TRACON
11:18AM 41.8403 -88.0381 214° Southwest 249 287 5,600 2,280 Climbing Chicago Center
11:19AM 41.9667 -88.4746 270° West  Level FlightAware Approximate
11:19AM 41.8283 -88.1375 261° West 282 325 9,100  Level Chicago Center
11:20AM 41.9668 -88.6183 270° West  Level FlightAware Approximate
11:20AM 41.8861 -88.2114 316° Northwest 291 335 11,300  Level Chicago Center
11:21AM 41.9667 -88.7619 270° West  Level FlightAware Approximate
11:21AM 41.9128 -88.3133 289° West 293 337 13,000  Level Chicago Center
11:22AM 41.9419 -88.4142 291° West 293 337 14,000 1,020 Climbing Chicago Center
11:23AM 41.9742 -88.5172 293° West 298 343 15,200 1,500 Climbing Chicago Center
11:25AM 42.0153 -88.6408 294° West 303 349 17,200 1,560 Climbing Chicago Center
11:26AM 42.0469 -88.7475 292° West 308 354 18,500 1,500 Climbing Chicago Center
11:27AM 42.0594 -88.8642 278° West 316 364 20,300 1,800 Climbing Chicago Center
11:28AM 42.0781 -88.9939 281° West 317 365 22,300 1,860 Climbing Chicago Center
11:29AM 42.0903 -89.1103 278° West 315 362 24,200 960 Climbing Chicago Center
11:30AM 42.0875 -89.2367 268° West 334 384 24,300 360 Climbing Chicago Center
11:31AM 42.0806 -89.3756 266° West 368 423 25,000 780 Climbing Chicago Center
11:32AM 42.0775 -89.5164 268° West 378 435 26,000 960 Climbing Chicago Center
11:33AM 42.0836 -89.6600 273° West 385 443 27,000 1,020 Climbing Chicago Center
11:34AM 42.0908 -89.8294 273° West 387 445 28,200 1,020 Climbing Chicago Center
11:35AM 42.0956 -89.9694 273° West 390 449 29,200 960 Climbing Chicago Center
11:36AM 42.1017 -90.1139 273° West 390 449 30,200 960 Climbing Chicago Center
11:37AM 42.1211 -90.2561 280° West 390 449 31,200 960 Climbing Chicago Center
11:38AM 42.1453 -90.3950 283° West 385 443 32,200 1,020 Climbing Chicago Center
11:39AM 42.1742 -90.5603 283° West 381 438 33,400 840 Climbing Chicago Center
11:40AM 42.1975 -90.6947 283° West 373 429 34,000 240 Climbing Chicago Center
11:41AM 42.2200 -90.8322 283° West 377 434 34,000  Level Chicago Center
11:42AM 42.2433 -90.9692 283° West 378 435 34,000  Level Chicago Center
11:43AM 42.2658 -91.1086 282° West 381 438 34,000  Level Chicago Center
11:44AM 42.2886 -91.2475 283° West 382 440 34,000  Level Chicago Center
11:45AM 42.3158 -91.4142 283° West 381 438 34,000  Level Chicago Center
11:46AM 42.3383 -91.5531 282° West 380 437 34,000  Level Chicago Center
11:47AM 42.3608 -91.6914 282° West 378 435 34,000  Level Chicago Center
11:48AM 42.3822 -91.8286 282° West 373 429 34,000  Level Chicago Center
11:49AM 42.4039 -91.9658 282° West 375 432 34,000  Level Chicago Center
11:50AM 42.4256 -92.1083 282° West 385 443 34,000  Level Chicago Center
11:51AM 42.4522 -92.2783 282° West 387 445 34,000  Level Chicago Center
11:52AM 42.4739 -92.4228 282° West 392 451 34,000  Level Chicago Center
11:53AM 42.4961 -92.5606 282° West 380 437 34,000  Level Chicago Center
11:54AM 42.5119 -92.6719 281° West 378 435 34,000  Level Minneapolis Center
11:54AM 42.5161 -92.6992 282° West 378 435 34,000  Level Chicago Center
11:55AM 42.5358 -92.8358 281° West 372 428 34,000  Level Chicago Center
11:56AM 42.5569 -92.9733 282° West 374 430 34,000  Level Chicago Center
11:58AM 42.5803 -93.1386 281° West 375 432 34,000  Level Chicago Center
11:58AM 42.5922 -93.2219 281° West 375 432 34,000  Level Minneapolis Center
11:59AM 42.6172 -93.3878 282° West 376 433 34,000  Level Minneapolis Center
12:00PM 42.6375 -93.5247 281° West 374 430 34,000  Level Minneapolis Center
12:01PM 42.6561 -93.6594 281° West 369 425 34,000  Level Minneapolis Center
12:02PM 42.6756 -93.7928 281° West 364 419 34,000  Level Minneapolis Center
12:03PM 42.6922 -93.9247 280° West 360 414 34,000  Level Minneapolis Center
12:04PM 42.7161 -94.0814 282° West 356 410 34,000  Level Minneapolis Center
12:06PM 42.7339 -94.2117 281° West 356 410 34,000  Level Minneapolis Center
12:07PM 42.7497 -94.3428 279° West 355 409 34,000  Level Minneapolis Center
12:08PM 42.7686 -94.4761 281° West 360 414 34,000  Level Minneapolis Center
12:09PM 42.7892 -94.6283 280° West 357 411 34,000  Level Minneapolis Center
12:10PM 42.8069 -94.7583 281° West 351 404 34,000  Level Minneapolis Center
12:11PM 42.8236 -94.8922 280° West 357 411 34,000  Level Minneapolis Center
12:12PM 42.8411 -95.0256 280° West 357 411 34,000  Level Minneapolis Center
12:13PM 42.8583 -95.1608 280° West 363 418 34,000  Level Minneapolis Center
12:14PM 42.8794 -95.3244 280° West 364 419 34,000  Level Minneapolis Center
12:15PM 42.8967 -95.4617 280° West 367 422 34,000  Level Minneapolis Center
12:16PM 42.9131 -95.5978 279° West 365 420 34,000  Level Minneapolis Center
12:17PM 42.9300 -95.7344 280° West 365 420 34,000  Level Minneapolis Center
12:18PM 42.9469 -95.8728 280° West 368 423 34,000  Level Minneapolis Center
12:19PM 42.9631 -96.0086 279° West 365 420 34,000  Level Minneapolis Center
12:20PM 42.9828 -96.1775 279° West 372 428 34,000  Level Minneapolis Center
12:21PM 42.9986 -96.3178 279° West 374 430 34,000  Level Minneapolis Center
12:22PM 43.0158 -96.4586 280° West 376 433 34,000  Level Minneapolis Center
12:23PM 43.0322 -96.5994 279° West 376 433 34,000  Level Minneapolis Center
12:24PM 43.0478 -96.7428 278° West 380 437 34,000  Level Minneapolis Center
12:25PM 43.0642 -96.8858 279° West 380 437 34,000  Level Minneapolis Center
12:26PM 43.0828 -97.0600 278° West 385 443 34,000  Level Minneapolis Center
12:27PM 43.0989 -97.2058 279° West 387 445 34,000  Level Minneapolis Center
12:28PM 43.1142 -97.3553 278° West 394 453 34,000  Level Minneapolis Center
12:29PM 43.1300 -97.5031 278° West 392 451 34,000  Level Minneapolis Center
12:30PM 43.1461 -97.6525 278° West 396 456 34,000  Level Minneapolis Center
12:31PM 43.1614 -97.8019 278° West 396 456 34,000  Level Minneapolis Center
12:32PM 43.1775 -97.9539 278° West 401 461 34,000  Level Minneapolis Center
12:33PM 43.1964 -98.1364 278° West 403 464 34,000  Level Minneapolis Center
12:34PM 43.2111 -98.2881 278° West 402 463 34,000  Level Minneapolis Center
12:36PM 43.2272 -98.4381 278° West 399 459 34,000  Level Minneapolis Center
12:37PM 43.2408 -98.5872 277° West 394 453 34,000  Level Minneapolis Center
12:38PM 43.2544 -98.7325 277° West 388 447 34,000  Level Minneapolis Center
12:39PM 43.2717 -98.9100 278° West 390 449 34,000  Level Minneapolis Center
12:40PM 43.2853 -99.0581 277° West 392 451 34,000  Level Minneapolis Center
12:41PM 43.2992 -99.2083 277° West 395 455 34,000  Level Minneapolis Center
12:42PM 43.3122 -99.3619 277° West 400 460 34,000  Level Minneapolis Center
12:43PM 43.3261 -99.5164 277° West 404 465 34,000  Level Minneapolis Center
12:44PM 43.3394 -99.6711 277° West 406 467 34,000  Level Minneapolis Center
12:45PM 43.3528 -99.8244 277° West 405 466 34,000  Level Minneapolis Center
12:46PM 43.3672 -100.0061 276° West 400 460 34,000  Level Minneapolis Center
12:47PM 43.3797 -100.1592 276° West 401 461 34,000  Level Minneapolis Center
12:48PM 43.3925 -100.3114 277° West 401 461 34,000  Level Minneapolis Center
12:49PM 43.4006 -100.4044 277° West 405 466 34,000  Level Denver Center
12:50PM 43.4150 -100.5886 276° West 404 465 34,000  Level Denver Center
12:51PM 43.4261 -100.7400 276° West 399 459 34,000  Level Denver Center
12:51PM 43.4278 -100.7706 274° West 402 463 34,000  Level Minneapolis Center
12:52PM 43.4383 -100.8956 277° West 407 468 34,000  Level Denver Center
12:53PM 43.4497 -101.0511 276° West 408 470 34,000  Level Denver Center
12:54PM 43.4614 -101.2069 276° West 409 471 34,000  Level Denver Center
12:55PM 43.4725 -101.3647 276° West 411 473 34,000  Level Denver Center
12:56PM 43.4839 -101.5228 276° West 415 478 34,000  Level Denver Center
12:57PM 43.4967 -101.7136 275° West 415 478 34,000  Level Denver Center
12:58PM 43.5103 -101.9050 276° West 419 482 34,000  Level Denver Center
12:59PM 43.5206 -102.0667 275° West 422 486 34,000  Level Denver Center
01:00PM 43.5322 -102.2414 275° West 422 486 34,000  Level Denver Center
01:01PM 43.5400 -102.3939 274° West 420 483 34,000  Level Denver Center
01:02PM 43.5528 -102.5753 276° West 422 486 34,000  Level Denver Center
01:03PM 43.5603 -102.7044 275° West 424 488 34,000  Level Denver Center
01:04PM 43.5725 -102.9103 275° West 425 489 34,000  Level Denver Center
01:05PM 43.5814 -103.0639 275° West 421 484 34,000  Level Denver Center
01:06PM 43.5911 -103.2447 274° West 423 487 34,000  Level Denver Center
01:07PM 43.5997 -103.3992 274° West 423 487 34,000  Level Denver Center
01:09PM 43.6072 -103.5522 274° West 421 484 34,000  Level Denver Center
01:10PM 43.6169 -103.7075 275° West 423 487 34,000  Level Denver Center
01:11PM 43.6253 -103.8892 274° West 426 490 34,000  Level Denver Center
01:12PM 43.6339 -104.0708 274° West 427 491 34,000  Level Denver Center
01:13PM 43.6419 -104.2253 274° West 423 487 34,000  Level Denver Center
01:14PM 43.6500 -104.4064 274° West 424 488 34,000  Level Denver Center
01:15PM 43.6558 -104.5592 273° West 420 483 34,000  Level Denver Center
01:16PM 43.6644 -104.7614 273° West 416 479 34,000  Level Denver Center
01:17PM 43.6714 -104.9353 273° West 408 470 34,000  Level Denver Center
01:18PM 43.6783 -105.0836 274° West 406 467 34,000  Level Denver Center
01:19PM 43.6844 -105.2556 273° West 404 465 34,000  Level Denver Center
01:20PM 43.6903 -105.4008 273° West 400 460 34,000  Level Denver Center
01:21PM 43.6958 -105.5708 273° West 398 458 34,000  Level Denver Center
01:22PM 43.7017 -105.7183 273° West 401 461 34,000  Level Denver Center
01:23PM 43.7064 -105.8931 272° West 407 468 34,000  Level Denver Center
01:24PM 43.7108 -106.0467 272° West 415 478 34,000  Level Denver Center
01:25PM 43.7158 -106.2256 272° West 417 480 34,000  Level Denver Center
01:26PM 43.7208 -106.3789 273° West 417 480 34,000  Level Denver Center
01:27PM 43.7236 -106.5294 272° West 411 473 34,000  Level Denver Center
01:28PM 43.7250 -106.6822 271° West 415 478 34,000  Level Salt Lake Center
01:29PM 43.7283 -106.8325 272° West 411 473 34,000  Level Salt Lake Center
01:30PM 43.7325 -106.8942 275° West 412 474 34,000  Level Denver Center
01:31PM 43.7364 -107.0683 272° West 407 468 34,000  Level Denver Center
01:31PM 43.7356 -107.1475 269° West 410 472 34,000  Level Salt Lake Center
01:32PM 43.7392 -107.3225 272° West 408 470 34,000  Level Salt Lake Center
01:33PM 43.7425 -107.4719 272° West 406 467 34,000  Level Salt Lake Center
01:34PM 43.7456 -107.6481 271° West 408 470 34,000  Level Salt Lake Center
01:35PM 43.7489 -107.7986 272° West 409 471 34,000  Level Salt Lake Center
01:36PM 43.7508 -107.9761 271° West 412 474 34,000  Level Salt Lake Center
01:37PM 43.7539 -108.1281 272° West 413 475 34,000  Level Salt Lake Center
01:39PM 43.7550 -108.2814 271° West 415 478 34,000  Level Salt Lake Center
01:40PM 43.7558 -108.4606 270° West 416 479 34,000  Level Salt Lake Center
01:41PM 43.7583 -108.6150 271° West 418 481 34,000  Level Salt Lake Center
01:42PM 43.7592 -108.7958 270° West 420 483 34,000  Level Salt Lake Center
01:43PM 43.7592 -108.9517 270° West 422 486 34,000  Level Salt Lake Center
01:44PM 43.7603 -109.1331 271° West 421 484 34,000  Level Salt Lake Center
01:45PM 43.7619 -109.2892 271° West 423 487 34,000  Level Salt Lake Center
01:46PM 43.7619 -109.4733 270° West 427 491 34,000  Level Salt Lake Center
01:47PM 43.7611 -109.6378 270° West 423 487 34,000  Level Salt Lake Center
01:48PM 43.7608 -109.7950 270° West 426 490 34,000  Level Salt Lake Center
01:49PM 43.7603 -109.9744 270° West 420 483 34,000  Level Salt Lake Center
01:50PM 43.7594 -110.1306 270° West 424 488 34,000  Level Salt Lake Center
01:51PM 43.7592 -110.3119 270° West 423 487 34,000  Level Salt Lake Center
01:52PM 43.7581 -110.4672 269° West 423 487 34,000  Level Salt Lake Center
01:53PM 43.7575 -110.6211 270° West 420 483 34,000  Level Salt Lake Center
01:54PM 43.7558 -110.8028 269° West 424 488 34,000  Level Salt Lake Center
01:55PM 43.7531 -110.9581 269° West 421 484 34,000  Level Salt Lake Center
01:56PM 43.7503 -111.1403 269° West 424 488 34,000  Level Salt Lake Center
01:57PM 43.7478 -111.2956 269° West 423 487 34,000  Level Salt Lake Center
01:58PM 43.7444 -111.4719 269° West 425 489 34,000  Level Salt Lake Center
01:59PM 43.7414 -111.6356 269° West 426 490 34,000  Level Salt Lake Center
02:00PM 43.7383 -111.8178 269° West 425 489 34,000  Level Salt Lake Center
02:01PM 43.7342 -111.9750 268° West 427 491 34,000  Level Salt Lake Center
02:02PM 43.7314 -112.1567 269° West 424 488 34,000  Level Salt Lake Center
02:03PM 43.7272 -112.3128 268° West 425 489 34,000  Level Salt Lake Center
02:04PM 43.7228 -112.4683 268° West 422 486 34,000  Level Salt Lake Center
02:05PM 43.7172 -112.6494 268° West 422 486 34,000  Level Salt Lake Center
02:06PM 43.7136 -112.8075 268° West 427 491 34,000  Level Salt Lake Center
02:07PM 43.7069 -112.9897 267° West 427 491 34,000  Level Salt Lake Center
02:08PM 43.7036 -113.1453 268° West 424 488 34,000  Level Salt Lake Center
02:09PM 43.6978 -113.3278 268° West 426 490 34,000  Level Salt Lake Center
02:11PM 43.6911 -113.4839 267° West 426 490 34,000  Level Salt Lake Center
02:12PM 43.6864 -113.6681 268° West 428 493 34,000  Level Salt Lake Center
02:13PM 43.6811 -113.8211 267° West 420 483 34,000 -360 Level Salt Lake Center
02:14PM 43.6736 -113.9911 267° West 429 494 33,300 -900 Descending Salt Lake Center
02:15PM 43.6653 -114.1772 267° West 433 498 32,200 -1,140 Descending Salt Lake Center
02:16PM 43.6586 -114.3356 267° West 429 494 31,000 -1,800 Descending Salt Lake Center
02:17PM 43.6517 -114.5189 267° West 427 491 28,500 -2,280 Descending Salt Lake Center
02:18PM 43.6442 -114.6794 266° West 438 504 26,300 -2,100 Descending Salt Lake Center
02:19PM 43.6372 -114.8381 267° West 430 495 24,200 -2,220 Descending Salt Lake Center
02:20PM 43.6283 -115.0164 266° West 414 476 21,800 -2,280 Descending Salt Lake Center
02:21PM 43.6208 -115.1683 266° West 398 458 19,500 -2,160 Descending Salt Lake Center
02:22PM 43.6142 -115.3167 266° West 374 430 17,400 -2,160 Descending Salt Lake Center
02:23PM 43.6067 -115.4594 266° West 360 414 15,100 -2,100 Descending Salt Lake Center
02:24PM 43.5983 -115.5983 265° West 351 404 13,100 -1,020 Descending Salt Lake Center
02:25PM 43.5917 -115.7331 266° West 339 390 13,100 -540 Level Salt Lake Center
02:26PM 43.5842 -115.8608 265° West 322 371 12,100 -1,140 Descending Salt Lake Center
02:27PM 43.5906 -115.9697 275° West 281 323 10,800 -1,260 Descending Salt Lake Center
02:28PM 43.6253 -116.0594 298° West 276 318 9,500 -1,260 Descending Salt Lake Center
02:29PM 43.6622 -116.1583 297° West 273 314 8,200 -960 Descending Salt Lake Center
02:30PM 43.6747 -116.2425 282° West 232 267 7,600 -1,260 Descending Salt Lake Center
02:31PM 43.6533 -116.3211 249° West 206 237 5,700 -1,860 Descending Salt Lake Center